San Amerigo — A8OK6 — position and weather

sailwx.info

Track history (hours):
 
Tides and Currents Weather Stations Pressure Air Temp Water Temp Dewpoint Dewpoint Depression Visibility Wind Speed Wind Dir Waves Ship Positions

San Amerigo

Last reported at 2018-Jul-17 15:21 UTC. Time now 2018-Jul-21 15:39 UTC.
Position N 09°36' W 079°46'.

Length 170 m; beam 27 m; draft 11.3 m.

Type: Ship (hazmat cat B). MMSI: 636091490.

Date/timePositionNaut miles runAvg speedWind from/ knotsBaromVisibWave heightAir tempDewpointWater temp
2018-Jul-17 15:21N 09°36' W 079°46'720.5
2018-Jul-17 15:00N 09°29' W 079°50'815.8
2018-Jul-17 14:30N 09°22' W 079°54'1 2.6
2018-Jul-17 14:00N 09°21' W 079°53'0 0.0
2018-Jul-17 13:30N 09°21' W 079°53'0 0.0
2018-Jul-17 13:00N 09°21' W 079°53'0 0.0
2018-Jul-17 12:30N 09°21' W 079°53'0 0.0
2018-Jul-17 12:00N 09°21' W 079°53'0 0.0
2018-Jul-17 11:30N 09°21' W 079°53'0 0.0
2018-Jul-17 11:00N 09°21' W 079°53'0 0.0
2018-Jul-17 10:30N 09°21' W 079°53'0 0.0
2018-Jul-17 10:00N 09°21' W 079°53'0 0.0
2018-Jul-17 09:30N 09°21' W 079°53'0 0.0
2018-Jul-17 08:57N 09°21' W 079°53'0 0.0
2018-Jul-17 08:30N 09°21' W 079°53'0 0.0
2018-Jul-17 08:00N 09°21' W 079°53'0 0.0
2018-Jul-17 07:30N 09°21' W 079°53'0 0.0
2018-Jul-17 07:00N 09°21' W 079°53'0 0.0
2018-Jul-17 06:30N 09°21' W 079°53'0 0.0
2018-Jul-17 06:00N 09°21' W 079°53'0 0.0
2018-Jul-17 05:30N 09°21' W 079°53'0 0.0
2018-Jul-17 05:00N 09°21' W 079°53'0 0.0
2018-Jul-17 04:30N 09°21' W 079°53'0 0.0
2018-Jul-17 03:57N 09°21' W 079°53'0 0.0
2018-Jul-17 03:30N 09°21' W 079°53'0 0.0
2018-Jul-17 03:00N 09°21' W 079°53'0 0.0
2018-Jul-17 02:30N 09°21' W 079°53'0 0.0
2018-Jul-17 02:00N 09°21' W 079°53'0 0.0
2018-Jul-17 01:30N 09°21' W 079°53'0 0.0
2018-Jul-17 01:00N 09°21' W 079°53'0 0.0
2018-Jul-17 00:27N 09°21' W 079°53'0 0.0
2018-Jul-16 23:30N 09°21' W 079°53'0 0.0
2018-Jul-16 23:00N 09°21' W 079°53'0 0.0
2018-Jul-16 22:30N 09°21' W 079°53'0 0.0
2018-Jul-16 22:00N 09°21' W 079°53'0 0.0
2018-Jul-16 21:30N 09°21' W 079°53'0 0.0
2018-Jul-16 21:00N 09°21' W 079°53'0 0.0
2018-Jul-16 20:30N 09°21' W 079°53'0 0.0
2018-Jul-16 20:00N 09°21' W 079°53'0 0.0
2018-Jul-16 19:30N 09°21' W 079°53'0 0.0
2018-Jul-16 19:00N 09°21' W 079°53'0 0.0
2018-Jul-16 18:30N 09°21' W 079°53'0 0.0
2018-Jul-16 18:00N 09°21' W 079°53'0 0.0
2018-Jul-16 17:30N 09°21' W 079°53'0 0.0
2018-Jul-16 17:00N 09°21' W 079°53'0 0.0
2018-Jul-16 16:30N 09°21' W 079°53'0 0.0
2018-Jul-16 16:00N 09°21' W 079°53'0 0.0
2018-Jul-16 15:30N 09°21' W 079°53'0 0.0
2018-Jul-16 15:00N 09°21' W 079°53'0 0.0
2018-Jul-16 14:30N 09°21' W 079°53'0 0.0
2018-Jul-16 14:00N 09°21' W 079°53'0 0.0
2018-Jul-16 13:30N 09°21' W 079°53'0 0.0
2018-Jul-16 13:00N 09°21' W 079°53'0 0.0
2018-Jul-16 12:30N 09°21' W 079°53'0 0.0
2018-Jul-16 12:00N 09°21' W 079°53'1 1.1
2018-Jul-16 11:30N 09°22' W 079°53'3 7.0
2018-Jul-16 11:01N 09°25' W 079°54'0 0.6
2018-Jul-16 10:31N 09°26' W 079°54'0 0.6
2018-Jul-16 10:01N 09°26' W 079°54'4 8.8
2018-Jul-16 09:30N 09°29' W 079°57'  
2018-Jul-13 18:00N 12°30' W 080°42'   060 / 241013.0 5.4 30.025.131.0
Track history (hours):
 
Tides and Currents Weather Stations Pressure Air Temp Water Temp Dewpoint Dewpoint Depression Visibility Wind Speed Wind Dir Waves Ship Positions

San Amerigo

Last reported at 2018-Jul-17 15:21 UTC. Time now 2018-Jul-21 15:39 UTC.
Position N 09°36' W 079°46'.

Length 170 m; beam 27 m; draft 11.3 m.

Type: Ship (hazmat cat B). MMSI: 636091490.

Date/timePositionNaut miles runAvg speedWind from/ knotsBaromVisibWave heightAir tempDewpointWater temp
2018-Jul-17 15:21N 09°36' W 079°46'720.5
2018-Jul-17 15:00N 09°29' W 079°50'815.8
2018-Jul-17 14:30N 09°22' W 079°54'1 2.6
2018-Jul-17 14:00N 09°21' W 079°53'0 0.0
2018-Jul-17 13:30N 09°21' W 079°53'0 0.0
2018-Jul-17 13:00N 09°21' W 079°53'0 0.0
2018-Jul-17 12:30N 09°21' W 079°53'0 0.0
2018-Jul-17 12:00N 09°21' W 079°53'0 0.0
2018-Jul-17 11:30N 09°21' W 079°53'0 0.0
2018-Jul-17 11:00N 09°21' W 079°53'0 0.0
2018-Jul-17 10:30N 09°21' W 079°53'0 0.0
2018-Jul-17 10:00N 09°21' W 079°53'0 0.0
2018-Jul-17 09:30N 09°21' W 079°53'0 0.0
2018-Jul-17 08:57N 09°21' W 079°53'0 0.0
2018-Jul-17 08:30N 09°21' W 079°53'0 0.0
2018-Jul-17 08:00N 09°21' W 079°53'0 0.0
2018-Jul-17 07:30N 09°21' W 079°53'0 0.0
2018-Jul-17 07:00N 09°21' W 079°53'0 0.0
2018-Jul-17 06:30N 09°21' W 079°53'0 0.0
2018-Jul-17 06:00N 09°21' W 079°53'0 0.0
2018-Jul-17 05:30N 09°21' W 079°53'0 0.0
2018-Jul-17 05:00N 09°21' W 079°53'0 0.0
2018-Jul-17 04:30N 09°21' W 079°53'0 0.0
2018-Jul-17 03:57N 09°21' W 079°53'0 0.0
2018-Jul-17 03:30N 09°21' W 079°53'0 0.0
2018-Jul-17 03:00N 09°21' W 079°53'0 0.0
2018-Jul-17 02:30N 09°21' W 079°53'0 0.0
2018-Jul-17 02:00N 09°21' W 079°53'0 0.0
2018-Jul-17 01:30N 09°21' W 079°53'0 0.0
2018-Jul-17 01:00N 09°21' W 079°53'0 0.0
2018-Jul-17 00:27N 09°21' W 079°53'0 0.0
2018-Jul-16 23:30N 09°21' W 079°53'0 0.0
2018-Jul-16 23:00N 09°21' W 079°53'0 0.0
2018-Jul-16 22:30N 09°21' W 079°53'0 0.0
2018-Jul-16 22:00N 09°21' W 079°53'0 0.0
2018-Jul-16 21:30N 09°21' W 079°53'0 0.0
2018-Jul-16 21:00N 09°21' W 079°53'0 0.0
2018-Jul-16 20:30N 09°21' W 079°53'0 0.0
2018-Jul-16 20:00N 09°21' W 079°53'0 0.0
2018-Jul-16 19:30N 09°21' W 079°53'0 0.0
2018-Jul-16 19:00N 09°21' W 079°53'0 0.0
2018-Jul-16 18:30N 09°21' W 079°53'0 0.0
2018-Jul-16 18:00N 09°21' W 079°53'0 0.0
2018-Jul-16 17:30N 09°21' W 079°53'0 0.0
2018-Jul-16 17:00N 09°21' W 079°53'0 0.0
2018-Jul-16 16:30N 09°21' W 079°53'0 0.0
2018-Jul-16 16:00N 09°21' W 079°53'0 0.0
2018-Jul-16 15:30N 09°21' W 079°53'0 0.0
2018-Jul-16 15:00N 09°21' W 079°53'0 0.0
2018-Jul-16 14:30N 09°21' W 079°53'0 0.0
2018-Jul-16 14:00N 09°21' W 079°53'0 0.0
2018-Jul-16 13:30N 09°21' W 079°53'0 0.0
2018-Jul-16 13:00N 09°21' W 079°53'0 0.0
2018-Jul-16 12:30N 09°21' W 079°53'0 0.0
2018-Jul-16 12:00N 09°21' W 079°53'1 1.1
2018-Jul-16 11:30N 09°22' W 079°53'3 7.0
2018-Jul-16 11:01N 09°25' W 079°54'0 0.6
2018-Jul-16 10:31N 09°26' W 079°54'0 0.6
2018-Jul-16 10:01N 09°26' W 079°54'4 8.8
2018-Jul-16 09:30N 09°29' W 079°57'  
2018-Jul-13 18:00N 12°30' W 080°42'   060 / 241013.0 5.4 30.025.131.0

Dump ship's entire track history